sensor_id;sensor_type;location;lat;lon;timestamp;temperature;humidity
47805;DHT22;33568;45.286;9.900;2023-03-14T00:00:14;14.20;93.00
47805;DHT22;33568;45.286;9.900;2023-03-14T00:02:41;14.20;93.10
47805;DHT22;33568;45.286;9.900;2023-03-14T00:05:08;14.20;92.90
47805;DHT22;33568;45.286;9.900;2023-03-14T00:07:36;14.20;92.80
47805;DHT22;33568;45.286;9.900;2023-03-14T00:10:19;14.20;92.70
47805;DHT22;33568;45.286;9.900;2023-03-14T00:12:45;14.20;92.60
47805;DHT22;33568;45.286;9.900;2023-03-14T00:15:12;14.20;92.40
47805;DHT22;33568;45.286;9.900;2023-03-14T00:17:38;14.10;92.60
47805;DHT22;33568;45.286;9.900;2023-03-14T00:20:06;14.10;92.30
47805;DHT22;33568;45.286;9.900;2023-03-14T00:22:38;14.10;92.10
47805;DHT22;33568;45.286;9.900;2023-03-14T00:25:06;14.10;92.00
47805;DHT22;33568;45.286;9.900;2023-03-14T00:27:33;14.10;92.00
47805;DHT22;33568;45.286;9.900;2023-03-14T00:30:00;14.00;92.00
47805;DHT22;33568;45.286;9.900;2023-03-14T00:32:27;14.00;91.90
47805;DHT22;33568;45.286;9.900;2023-03-14T00:34:53;14.00;91.90
47805;DHT22;33568;45.286;9.900;2023-03-14T00:37:19;13.90;92.20
47805;DHT22;33568;45.286;9.900;2023-03-14T00:39:46;13.90;91.90
47805;DHT22;33568;45.286;9.900;2023-03-14T00:42:13;13.80;92.00
47805;DHT22;33568;45.286;9.900;2023-03-14T00:44:39;13.70;91.80
47805;DHT22;33568;45.286;9.900;2023-03-14T00:47:07;13.70;91.80
47805;DHT22;33568;45.286;9.900;2023-03-14T00:49:33;13.70;91.80
47805;DHT22;33568;45.286;9.900;2023-03-14T00:52:00;13.60;92.00
47805;DHT22;33568;45.286;9.900;2023-03-14T00:54:26;13.60;91.70
47805;DHT22;33568;45.286;9.900;2023-03-14T00:56:53;13.60;91.60
47805;DHT22;33568;45.286;9.900;2023-03-14T00:59:19;13.50;91.90
47805;DHT22;33568;45.286;9.900;2023-03-14T01:01:46;13.50;91.60
47805;DHT22;33568;45.286;9.900;2023-03-14T01:04:13;13.50;91.50
47805;DHT22;33568;45.286;9.900;2023-03-14T01:06:39;13.50;91.40
47805;DHT22;33568;45.286;9.900;2023-03-14T01:09:06;13.60;91.40
47805;DHT22;33568;45.286;9.900;2023-03-14T01:11:34;13.50;91.50
47805;DHT22;33568;45.286;9.900;2023-03-14T01:14:02;13.50;91.30
47805;DHT22;33568;45.286;9.900;2023-03-14T01:16:32;13.50;91.20
47805;DHT22;33568;45.286;9.900;2023-03-14T01:19:01;13.50;91.10
47805;DHT22;33568;45.286;9.900;2023-03-14T01:21:30;13.50;91.00
47805;DHT22;33568;45.286;9.900;2023-03-14T01:23:58;13.40;91.10
47805;DHT22;33568;45.286;9.900;2023-03-14T01:26:27;13.50;91.10
47805;DHT22;33568;45.286;9.900;2023-03-14T01:28:56;13.50;91.10
47805;DHT22;33568;45.286;9.900;2023-03-14T01:31:24;13.50;91.10
47805;DHT22;33568;45.286;9.900;2023-03-14T01:33:51;13.50;91.10
47805;DHT22;33568;45.286;9.900;2023-03-14T01:36:19;13.40;91.10
47805;DHT22;33568;45.286;9.900;2023-03-14T01:38:46;13.40;91.10
47805;DHT22;33568;45.286;9.900;2023-03-14T01:41:18;13.40;91.00
47805;DHT22;33568;45.286;9.900;2023-03-14T01:43:45;13.40;91.00
47805;DHT22;33568;45.286;9.900;2023-03-14T01:46:22;13.40;91.00
47805;DHT22;33568;45.286;9.900;2023-03-14T01:54:27;13.20;91.20
47805;DHT22;33568;45.286;9.900;2023-03-14T01:59:35;13.20;90.90
47805;DHT22;33568;45.286;9.900;2023-03-14T02:02:05;13.20;90.80
47805;DHT22;33568;45.286;9.900;2023-03-14T02:04:35;13.20;90.80
47805;DHT22;33568;45.286;9.900;2023-03-14T02:07:49;13.20;90.70
47805;DHT22;33568;45.286;9.900;2023-03-14T02:10:25;13.30;90.60
47805;DHT22;33568;45.286;9.900;2023-03-14T02:12:55;13.30;90.60
47805;DHT22;33568;45.286;9.900;2023-03-14T02:15:33;13.30;90.50
47805;DHT22;33568;45.286;9.900;2023-03-14T02:18:10;13.30;90.70
47805;DHT22;33568;45.286;9.900;2023-03-14T02:21:14;13.30;90.50
47805;DHT22;33568;45.286;9.900;2023-03-14T02:26:28;13.20;90.40
47805;DHT22;33568;45.286;9.900;2023-03-14T02:28:56;13.30;90.50
47805;DHT22;33568;45.286;9.900;2023-03-14T02:31:24;13.20;90.50
47805;DHT22;33568;45.286;9.900;2023-03-14T02:33:51;13.20;90.50
47805;DHT22;33568;45.286;9.900;2023-03-14T02:36:19;13.20;90.50
47805;DHT22;33568;45.286;9.900;2023-03-14T02:38:52;13.20;90.60
47805;DHT22;33568;45.286;9.900;2023-03-14T02:41:23;13.20;90.80
47805;DHT22;33568;45.286;9.900;2023-03-14T02:43:58;13.10;90.90
47805;DHT22;33568;45.286;9.900;2023-03-14T02:46:25;13.10;91.00
47805;DHT22;33568;45.286;9.900;2023-03-14T02:49:05;13.00;91.10
47805;DHT22;33568;45.286;9.900;2023-03-14T02:51:34;13.00;91.10
47805;DHT22;33568;45.286;9.900;2023-03-14T02:54:01;12.90;91.20
47805;DHT22;33568;45.286;9.900;2023-03-14T02:56:28;12.90;91.30
47805;DHT22;33568;45.286;9.900;2023-03-14T02:58:54;12.90;91.30
47805;DHT22;33568;45.286;9.900;2023-03-14T03:01:32;12.90;91.30
47805;DHT22;33568;45.286;9.900;2023-03-14T03:03:59;12.90;91.30
47805;DHT22;33568;45.286;9.900;2023-03-14T03:06:25;12.90;91.40
47805;DHT22;33568;45.286;9.900;2023-03-14T03:08:52;12.80;91.90
47805;DHT22;33568;45.286;9.900;2023-03-14T03:11:19;12.70;91.50
47805;DHT22;33568;45.286;9.900;2023-03-14T03:13:45;12.80;91.60
47805;DHT22;33568;45.286;9.900;2023-03-14T03:16:12;12.70;92.20
47805;DHT22;33568;45.286;9.900;2023-03-14T03:18:42;12.80;91.60
47805;DHT22;33568;45.286;9.900;2023-03-14T03:21:08;12.70;91.60
47805;DHT22;33568;45.286;9.900;2023-03-14T03:23:35;12.80;91.60
47805;DHT22;33568;45.286;9.900;2023-03-14T03:26:04;12.80;91.70
47805;DHT22;33568;45.286;9.900;2023-03-14T03:28:31;12.80;91.70
47805;DHT22;33568;45.286;9.900;2023-03-14T03:30:59;12.80;91.70
47805;DHT22;33568;45.286;9.900;2023-03-14T03:33:32;12.80;91.60
47805;DHT22;33568;45.286;9.900;2023-03-14T03:35:58;12.90;91.70
47805;DHT22;33568;45.286;9.900;2023-03-14T03:38:30;12.80;92.20
47805;DHT22;33568;45.286;9.900;2023-03-14T03:41:02;12.90;91.80
47805;DHT22;33568;45.286;9.900;2023-03-14T03:43:30;12.90;91.80
47805;DHT22;33568;45.286;9.900;2023-03-14T03:45:58;12.90;91.70
47805;DHT22;33568;45.286;9.900;2023-03-14T03:48:24;13.00;91.70
47805;DHT22;33568;45.286;9.900;2023-03-14T03:50:51;13.00;91.70
47805;DHT22;33568;45.286;9.900;2023-03-14T03:53:21;13.10;91.70
47805;DHT22;33568;45.286;9.900;2023-03-14T03:55:48;13.10;91.70
47805;DHT22;33568;45.286;9.900;2023-03-14T03:58:15;13.10;91.70
47805;DHT22;33568;45.286;9.900;2023-03-14T04:00:41;13.10;91.70
47805;DHT22;33568;45.286;9.900;2023-03-14T04:03:08;13.00;91.90
47805;DHT22;33568;45.286;9.900;2023-03-14T04:05:35;13.10;91.70
47805;DHT22;33568;45.286;9.900;2023-03-14T04:08:07;13.10;91.60
47805;DHT22;33568;45.286;9.900;2023-03-14T04:10:35;13.10;91.70
47805;DHT22;33568;45.286;9.900;2023-03-14T04:13:15;13.10;91.70
47805;DHT22;33568;45.286;9.900;2023-03-14T04:15:47;13.10;91.60
47805;DHT22;33568;45.286;9.900;2023-03-14T04:18:25;13.10;91.60
47805;DHT22;33568;45.286;9.900;2023-03-14T04:20:53;13.10;91.70
47805;DHT22;33568;45.286;9.900;2023-03-14T04:23:22;13.10;91.70
47805;DHT22;33568;45.286;9.900;2023-03-14T04:25:53;13.00;91.80
47805;DHT22;33568;45.286;9.900;2023-03-14T04:28:21;13.00;91.90
47805;DHT22;33568;45.286;9.900;2023-03-14T04:30:47;13.00;92.00
47805;DHT22;33568;45.286;9.900;2023-03-14T04:33:20;13.00;92.00
47805;DHT22;33568;45.286;9.900;2023-03-14T04:35:57;12.90;92.00
47805;DHT22;33568;45.286;9.900;2023-03-14T04:38:25;12.90;92.10
47805;DHT22;33568;45.286;9.900;2023-03-14T04:40:52;12.90;92.10
47805;DHT22;33568;45.286;9.900;2023-03-14T04:43:22;12.90;92.30
47805;DHT22;33568;45.286;9.900;2023-03-14T04:45:57;12.90;92.40
47805;DHT22;33568;45.286;9.900;2023-03-14T04:48:25;12.80;92.70
47805;DHT22;33568;45.286;9.900;2023-03-14T04:50:52;12.80;92.80
47805;DHT22;33568;45.286;9.900;2023-03-14T04:53:19;12.80;93.00
47805;DHT22;33568;45.286;9.900;2023-03-14T04:55:52;12.80;93.30
47805;DHT22;33568;45.286;9.900;2023-03-14T04:58:21;12.70;93.60
47805;DHT22;33568;45.286;9.900;2023-03-14T05:00:50;12.80;93.80
47805;DHT22;33568;45.286;9.900;2023-03-14T05:03:35;12.80;93.90
47805;DHT22;33568;45.286;9.900;2023-03-14T05:06:24;12.80;94.10
47805;DHT22;33568;45.286;9.900;2023-03-14T05:09:00;12.80;94.50
47805;DHT22;33568;45.286;9.900;2023-03-14T05:12:02;12.60;95.00
47805;DHT22;33568;45.286;9.900;2023-03-14T05:14:32;12.60;95.40
47805;DHT22;33568;45.286;9.900;2023-03-14T05:17:16;12.60;95.40
47805;DHT22;33568;45.286;9.900;2023-03-14T05:20:05;12.60;95.80
47805;DHT22;33568;45.286;9.900;2023-03-14T05:22:52;12.70;96.00
47805;DHT22;33568;45.286;9.900;2023-03-14T05:25:31;12.70;96.10
47805;DHT22;33568;45.286;9.900;2023-03-14T05:28:10;12.70;96.30
47805;DHT22;33568;45.286;9.900;2023-03-14T05:30:46;12.70;96.40
47805;DHT22;33568;45.286;9.900;2023-03-14T05:33:27;12.60;96.70
47805;DHT22;33568;45.286;9.900;2023-03-14T05:36:16;12.50;96.90
47805;DHT22;33568;45.286;9.900;2023-03-14T05:39:02;12.50;97.00
47805;DHT22;33568;45.286;9.900;2023-03-14T05:41:46;12.40;97.00
47805;DHT22;33568;45.286;9.900;2023-03-14T05:44:29;12.40;97.30
47805;DHT22;33568;45.286;9.900;2023-03-14T05:47:11;12.50;97.30
47805;DHT22;33568;45.286;9.900;2023-03-14T05:49:56;12.40;97.30
47805;DHT22;33568;45.286;9.900;2023-03-14T05:52:41;12.40;97.40
47805;DHT22;33568;45.286;9.900;2023-03-14T05:55:07;12.50;97.50
47805;DHT22;33568;45.286;9.900;2023-03-14T05:58:03;12.50;98.70
47805;DHT22;33568;45.286;9.900;2023-03-14T06:01:03;12.50;97.40
47805;DHT22;33568;45.286;9.900;2023-03-14T06:03:44;12.60;97.40
47805;DHT22;33568;45.286;9.900;2023-03-14T06:06:10;12.60;97.40
47805;DHT22;33568;45.286;9.900;2023-03-14T06:08:37;12.60;97.60
47805;DHT22;33568;45.286;9.900;2023-03-14T06:11:08;12.50;99.00
47805;DHT22;33568;45.286;9.900;2023-03-14T06:13:35;12.50;97.80
47805;DHT22;33568;45.286;9.900;2023-03-14T06:16:02;12.50;97.90
47805;DHT22;33568;45.286;9.900;2023-03-14T06:18:29;12.50;98.10
47805;DHT22;33568;45.286;9.900;2023-03-14T06:20:56;12.50;98.20
47805;DHT22;33568;45.286;9.900;2023-03-14T06:23:26;12.50;98.40
47805;DHT22;33568;45.286;9.900;2023-03-14T06:25:53;12.40;98.60
47805;DHT22;33568;45.286;9.900;2023-03-14T06:28:22;12.40;98.80
47805;DHT22;33568;45.286;9.900;2023-03-14T06:30:49;12.30;99.00
47805;DHT22;33568;45.286;9.900;2023-03-14T06:33:16;12.30;99.10
47805;DHT22;33568;45.286;9.900;2023-03-14T06:35:43;12.30;99.20
47805;DHT22;33568;45.286;9.900;2023-03-14T06:38:10;12.20;99.40
47805;DHT22;33568;45.286;9.900;2023-03-14T06:40:37;12.30;99.50
47805;DHT22;33568;45.286;9.900;2023-03-14T06:43:07;12.30;99.50
47805;DHT22;33568;45.286;9.900;2023-03-14T06:45:36;12.20;99.70
47805;DHT22;33568;45.286;9.900;2023-03-14T06:48:03;12.30;99.70
47805;DHT22;33568;45.286;9.900;2023-03-14T06:50:50;12.20;99.70
47805;DHT22;33568;45.286;9.900;2023-03-14T06:53:17;12.20;99.90
47805;DHT22;33568;45.286;9.900;2023-03-14T06:55:44;12.10;99.90
47805;DHT22;33568;45.286;9.900;2023-03-14T06:58:14;12.10;99.90
47805;DHT22;33568;45.286;9.900;2023-03-14T07:00:43;12.10;99.90
47805;DHT22;33568;45.286;9.900;2023-03-14T07:03:14;12.10;99.90
47805;DHT22;33568;45.286;9.900;2023-03-14T07:05:43;12.10;99.90
47805;DHT22;33568;45.286;9.900;2023-03-14T07:08:10;12.20;99.90
47805;DHT22;33568;45.286;9.900;2023-03-14T07:10:37;12.20;99.90
47805;DHT22;33568;45.286;9.900;2023-03-14T07:13:06;12.20;99.90
47805;DHT22;33568;45.286;9.900;2023-03-14T07:15:37;12.30;99.90
47805;DHT22;33568;45.286;9.900;2023-03-14T07:18:08;12.50;99.90
47805;DHT22;33568;45.286;9.900;2023-03-14T07:20:35;12.70;99.90
47805;DHT22;33568;45.286;9.900;2023-03-14T07:23:03;12.80;99.90
47805;DHT22;33568;45.286;9.900;2023-03-14T07:25:44;12.90;99.90
47805;DHT22;33568;45.286;9.900;2023-03-14T07:28:12;13.00;99.90
47805;DHT22;33568;45.286;9.900;2023-03-14T07:30:41;13.10;99.90
47805;DHT22;33568;45.286;9.900;2023-03-14T07:33:16;13.10;99.90
47805;DHT22;33568;45.286;9.900;2023-03-14T07:35:43;13.10;99.90
47805;DHT22;33568;45.286;9.900;2023-03-14T07:38:10;13.10;99.90
47805;DHT22;33568;45.286;9.900;2023-03-14T07:40:44;13.10;99.90
47805;DHT22;33568;45.286;9.900;2023-03-14T07:43:11;13.10;99.90
47805;DHT22;33568;45.286;9.900;2023-03-14T07:46:00;13.10;99.90
47805;DHT22;33568;45.286;9.900;2023-03-14T07:48:27;13.10;99.90
47805;DHT22;33568;45.286;9.900;2023-03-14T07:50:54;13.10;99.90
47805;DHT22;33568;45.286;9.900;2023-03-14T07:53:22;13.10;99.90
47805;DHT22;33568;45.286;9.900;2023-03-14T07:55:51;13.20;99.90
47805;DHT22;33568;45.286;9.900;2023-03-14T07:58:18;13.30;99.90
47805;DHT22;33568;45.286;9.900;2023-03-14T08:00:45;13.40;99.90
47805;DHT22;33568;45.286;9.900;2023-03-14T08:03:11;13.40;99.90
47805;DHT22;33568;45.286;9.900;2023-03-14T08:05:38;13.40;99.90
47805;DHT22;33568;45.286;9.900;2023-03-14T08:08:05;13.50;99.90
47805;DHT22;33568;45.286;9.900;2023-03-14T08:10:32;13.50;99.90
47805;DHT22;33568;45.286;9.900;2023-03-14T08:12:59;13.50;99.90
47805;DHT22;33568;45.286;9.900;2023-03-14T08:15:28;13.50;99.90
47805;DHT22;33568;45.286;9.900;2023-03-14T08:17:56;13.50;99.90
47805;DHT22;33568;45.286;9.900;2023-03-14T08:20:25;13.40;99.90
47805;DHT22;33568;45.286;9.900;2023-03-14T08:22:52;13.40;99.90
47805;DHT22;33568;45.286;9.900;2023-03-14T08:25:18;13.30;99.90
47805;DHT22;33568;45.286;9.900;2023-03-14T08:27:45;13.30;99.90
47805;DHT22;33568;45.286;9.900;2023-03-14T08:30:14;13.40;99.90
47805;DHT22;33568;45.286;9.900;2023-03-14T08:32:41;13.40;99.90
47805;DHT22;33568;45.286;9.900;2023-03-14T08:35:08;13.40;99.90
47805;DHT22;33568;45.286;9.900;2023-03-14T08:37:35;13.40;99.90
47805;DHT22;33568;45.286;9.900;2023-03-14T08:40:04;13.50;99.90
47805;DHT22;33568;45.286;9.900;2023-03-14T08:42:37;13.60;99.90
47805;DHT22;33568;45.286;9.900;2023-03-14T08:45:04;13.60;99.90
47805;DHT22;33568;45.286;9.900;2023-03-14T08:47:31;13.60;99.90
47805;DHT22;33568;45.286;9.900;2023-03-14T08:49:57;13.50;99.90
47805;DHT22;33568;45.286;9.900;2023-03-14T08:52:24;13.50;99.90
47805;DHT22;33568;45.286;9.900;2023-03-14T08:54:50;13.40;99.90
47805;DHT22;33568;45.286;9.900;2023-03-14T08:57:16;13.50;99.90
47805;DHT22;33568;45.286;9.900;2023-03-14T08:59:43;13.40;99.90
47805;DHT22;33568;45.286;9.900;2023-03-14T09:02:11;13.40;99.90
47805;DHT22;33568;45.286;9.900;2023-03-14T09:04:38;13.40;99.90
47805;DHT22;33568;45.286;9.900;2023-03-14T09:07:04;13.40;99.90
47805;DHT22;33568;45.286;9.900;2023-03-14T09:09:31;13.40;99.90
47805;DHT22;33568;45.286;9.900;2023-03-14T09:11:57;13.40;99.90
47805;DHT22;33568;45.286;9.900;2023-03-14T09:14:24;13.70;99.90
47805;DHT22;33568;45.286;9.900;2023-03-14T09:16:50;13.90;99.90
47805;DHT22;33568;45.286;9.900;2023-03-14T09:19:17;14.00;99.90
47805;DHT22;33568;45.286;9.900;2023-03-14T09:21:43;14.10;99.70
47805;DHT22;33568;45.286;9.900;2023-03-14T09:24:10;14.00;99.60
47805;DHT22;33568;45.286;9.900;2023-03-14T09:26:36;14.00;99.70
47805;DHT22;33568;45.286;9.900;2023-03-14T09:29:03;14.00;99.70
47805;DHT22;33568;45.286;9.900;2023-03-14T09:31:30;14.10;99.60
47805;DHT22;33568;45.286;9.900;2023-03-14T09:33:56;14.20;99.50
47805;DHT22;33568;45.286;9.900;2023-03-14T09:36:23;14.10;99.30
47805;DHT22;33568;45.286;9.900;2023-03-14T09:38:49;14.20;99.40
47805;DHT22;33568;45.286;9.900;2023-03-14T09:41:26;14.20;99.20
47805;DHT22;33568;45.286;9.900;2023-03-14T09:44:16;14.20;99.40
47805;DHT22;33568;45.286;9.900;2023-03-14T09:46:46;14.40;99.20
47805;DHT22;33568;45.286;9.900;2023-03-14T09:49:21;14.50;98.90
47805;DHT22;33568;45.286;9.900;2023-03-14T09:51:51;14.60;98.90
47805;DHT22;33568;45.286;9.900;2023-03-14T09:54:29;14.80;98.70
47805;DHT22;33568;45.286;9.900;2023-03-14T09:56:56;15.00;98.50
47805;DHT22;33568;45.286;9.900;2023-03-14T09:59:23;15.00;98.40
47805;DHT22;33568;45.286;9.900;2023-03-14T10:01:49;14.90;98.50
47805;DHT22;33568;45.286;9.900;2023-03-14T10:04:17;14.90;98.60
47805;DHT22;33568;45.286;9.900;2023-03-14T10:06:46;14.80;98.90
47805;DHT22;33568;45.286;9.900;2023-03-14T10:09:22;14.80;98.70
47805;DHT22;33568;45.286;9.900;2023-03-14T10:11:54;14.70;98.60
47805;DHT22;33568;45.286;9.900;2023-03-14T10:14:36;14.70;98.70
47805;DHT22;33568;45.286;9.900;2023-03-14T10:17:11;14.80;98.70
47805;DHT22;33568;45.286;9.900;2023-03-14T10:19:52;15.00;98.50
47805;DHT22;33568;45.286;9.900;2023-03-14T10:22:19;15.10;98.30
47805;DHT22;33568;45.286;9.900;2023-03-14T10:24:54;15.20;98.40
47805;DHT22;33568;45.286;9.900;2023-03-14T10:27:32;15.30;98.10
47805;DHT22;33568;45.286;9.900;2023-03-14T10:30:07;15.20;98.00
47805;DHT22;33568;45.286;9.900;2023-03-14T10:32:37;15.20;97.90
47805;DHT22;33568;45.286;9.900;2023-03-14T10:38:00;15.10;98.10
47805;DHT22;33568;45.286;9.900;2023-03-14T10:40:30;15.10;97.90
47805;DHT22;33568;45.286;9.900;2023-03-14T10:42:59;15.10;98.10
47805;DHT22;33568;45.286;9.900;2023-03-14T10:48:40;15.20;98.00
47805;DHT22;33568;45.286;9.900;2023-03-14T10:53:48;15.30;97.80
47805;DHT22;33568;45.286;9.900;2023-03-14T10:56:21;15.50;97.80
47805;DHT22;33568;45.286;9.900;2023-03-14T10:58:49;15.70;97.40
47805;DHT22;33568;45.286;9.900;2023-03-14T11:01:40;16.00;97.20
47805;DHT22;33568;45.286;9.900;2023-03-14T11:06:59;16.40;96.60
47805;DHT22;33568;45.286;9.900;2023-03-14T11:10:03;16.50;96.50
47805;DHT22;33568;45.286;9.900;2023-03-14T11:26:59;15.90;96.70
47805;DHT22;33568;45.286;9.900;2023-03-14T11:35:30;15.70;97.30
47805;DHT22;33568;45.286;9.900;2023-03-14T11:40:37;15.70;97.50
47805;DHT22;33568;45.286;9.900;2023-03-14T11:45:37;15.80;97.50
47805;DHT22;33568;45.286;9.900;2023-03-14T11:48:25;15.70;97.70
47805;DHT22;33568;45.286;9.900;2023-03-14T11:50:57;15.60;97.60
47805;DHT22;33568;45.286;9.900;2023-03-14T11:53:31;15.60;97.60
47805;DHT22;33568;45.286;9.900;2023-03-14T11:56:00;15.60;97.60
47805;DHT22;33568;45.286;9.900;2023-03-14T11:58:33;15.90;97.40
47805;DHT22;33568;45.286;9.900;2023-03-14T12:01:08;16.40;97.10
47805;DHT22;33568;45.286;9.900;2023-03-14T12:03:46;17.00;96.40
47805;DHT22;33568;45.286;9.900;2023-03-14T12:09:08;17.60;94.50
47805;DHT22;33568;45.286;9.900;2023-03-14T12:14:22;17.40;94.80
47805;DHT22;33568;45.286;9.900;2023-03-14T12:16:54;17.30;95.00
47805;DHT22;33568;45.286;9.900;2023-03-14T12:22:00;17.30;94.90
47805;DHT22;33568;45.286;9.900;2023-03-14T12:24:33;17.20;94.80
47805;DHT22;33568;45.286;9.900;2023-03-14T12:27:03;17.30;94.80
47805;DHT22;33568;45.286;9.900;2023-03-14T12:29:31;17.30;94.70
47805;DHT22;33568;45.286;9.900;2023-03-14T12:34:30;17.30;94.80
47805;DHT22;33568;45.286;9.900;2023-03-14T12:37:16;17.40;94.70
47805;DHT22;33568;45.286;9.900;2023-03-14T12:39:58;17.70;94.40
47805;DHT22;33568;45.286;9.900;2023-03-14T12:45:36;18.30;93.30
47805;DHT22;33568;45.286;9.900;2023-03-14T12:48:10;18.70;92.70
47805;DHT22;33568;45.286;9.900;2023-03-14T12:50:44;19.00;92.40
47805;DHT22;33568;45.286;9.900;2023-03-14T12:59:27;18.50;91.70
47805;DHT22;33568;45.286;9.900;2023-03-14T13:02:00;18.10;91.60
47805;DHT22;33568;45.286;9.900;2023-03-14T13:04:48;18.20;92.40
47805;DHT22;33568;45.286;9.900;2023-03-14T13:12:29;18.40;91.50
47805;DHT22;33568;45.286;9.900;2023-03-14T13:14:59;18.10;91.70
47805;DHT22;33568;45.286;9.900;2023-03-14T13:17:34;17.90;92.10
47805;DHT22;33568;45.286;9.900;2023-03-14T13:20:12;17.80;92.20
47805;DHT22;33568;45.286;9.900;2023-03-14T13:22:46;17.80;92.40
47805;DHT22;33568;45.286;9.900;2023-03-14T13:25:14;17.70;92.50
47805;DHT22;33568;45.286;9.900;2023-03-14T13:27:43;17.50;92.60
47805;DHT22;33568;45.286;9.900;2023-03-14T13:30:35;17.30;93.00
47805;DHT22;33568;45.286;9.900;2023-03-14T13:33:04;17.20;93.00
47805;DHT22;33568;45.286;9.900;2023-03-14T13:35:40;17.20;93.40
47805;DHT22;33568;45.286;9.900;2023-03-14T13:38:16;17.20;93.50
47805;DHT22;33568;45.286;9.900;2023-03-14T13:40:44;17.30;93.40
47805;DHT22;33568;45.286;9.900;2023-03-14T13:45:49;17.30;93.00
47805;DHT22;33568;45.286;9.900;2023-03-14T13:48:16;17.20;92.90
47805;DHT22;33568;45.286;9.900;2023-03-14T13:50:51;17.20;92.90
47805;DHT22;33568;45.286;9.900;2023-03-14T13:53:18;17.10;93.00
47805;DHT22;33568;45.286;9.900;2023-03-14T13:55:45;17.10;93.10
47805;DHT22;33568;45.286;9.900;2023-03-14T13:58:24;17.10;93.00
47805;DHT22;33568;45.286;9.900;2023-03-14T14:03:22;17.00;93.10
47805;DHT22;33568;45.286;9.900;2023-03-14T14:05:49;17.00;93.30
47805;DHT22;33568;45.286;9.900;2023-03-14T14:08:15;17.10;93.10
47805;DHT22;33568;45.286;9.900;2023-03-14T14:10:42;17.20;92.90
47805;DHT22;33568;45.286;9.900;2023-03-14T14:13:13;17.40;92.80
47805;DHT22;33568;45.286;9.900;2023-03-14T14:15:44;17.50;92.50
47805;DHT22;33568;45.286;9.900;2023-03-14T14:18:14;17.50;92.50
47805;DHT22;33568;45.286;9.900;2023-03-14T14:20:45;17.50;92.40
47805;DHT22;33568;45.286;9.900;2023-03-14T14:25:39;17.70;92.00
47805;DHT22;33568;45.286;9.900;2023-03-14T14:28:36;17.80;91.80
47805;DHT22;33568;45.286;9.900;2023-03-14T14:31:15;17.80;91.40
47805;DHT22;33568;45.286;9.900;2023-03-14T14:33:57;17.80;90.90
47805;DHT22;33568;45.286;9.900;2023-03-14T14:36:41;17.90;91.20
47805;DHT22;33568;45.286;9.900;2023-03-14T14:39:20;17.90;90.80
47805;DHT22;33568;45.286;9.900;2023-03-14T14:41:51;18.00;91.20
47805;DHT22;33568;45.286;9.900;2023-03-14T14:44:28;18.10;90.90
47805;DHT22;33568;45.286;9.900;2023-03-14T14:46:56;18.20;90.30
47805;DHT22;33568;45.286;9.900;2023-03-14T14:49:30;18.10;90.40
47805;DHT22;33568;45.286;9.900;2023-03-14T14:52:03;18.10;90.50
47805;DHT22;33568;45.286;9.900;2023-03-14T14:54:38;18.20;90.20
47805;DHT22;33568;45.286;9.900;2023-03-14T14:57:18;18.10;90.00
47805;DHT22;33568;45.286;9.900;2023-03-14T14:59:47;17.80;90.10
47805;DHT22;33568;45.286;9.900;2023-03-14T15:02:50;17.70;90.60
47805;DHT22;33568;45.286;9.900;2023-03-14T15:05:20;17.60;90.50
47805;DHT22;33568;45.286;9.900;2023-03-14T15:07:50;17.50;90.80
47805;DHT22;33568;45.286;9.900;2023-03-14T15:10:19;17.50;90.80
47805;DHT22;33568;45.286;9.900;2023-03-14T15:12:46;17.40;90.80
47805;DHT22;33568;45.286;9.900;2023-03-14T15:15:14;17.30;91.00
47805;DHT22;33568;45.286;9.900;2023-03-14T15:17:42;17.20;91.20
47805;DHT22;33568;45.286;9.900;2023-03-14T15:20:14;17.20;91.30
47805;DHT22;33568;45.286;9.900;2023-03-14T15:22:41;17.20;91.40
47805;DHT22;33568;45.286;9.900;2023-03-14T15:25:08;17.20;91.60
47805;DHT22;33568;45.286;9.900;2023-03-14T15:27:36;17.10;91.50
47805;DHT22;33568;45.286;9.900;2023-03-14T15:30:08;17.10;91.50
47805;DHT22;33568;45.286;9.900;2023-03-14T15:32:35;17.10;91.70
47805;DHT22;33568;45.286;9.900;2023-03-14T15:35:01;17.00;91.80
47805;DHT22;33568;45.286;9.900;2023-03-14T15:37:28;17.10;91.90
47805;DHT22;33568;45.286;9.900;2023-03-14T15:39:55;17.10;92.00
47805;DHT22;33568;45.286;9.900;2023-03-14T15:42:24;17.20;91.90
47805;DHT22;33568;45.286;9.900;2023-03-14T15:44:50;17.20;91.90
47805;DHT22;33568;45.286;9.900;2023-03-14T15:47:17;17.30;91.90
47805;DHT22;33568;45.286;9.900;2023-03-14T15:49:45;17.30;91.80
47805;DHT22;33568;45.286;9.900;2023-03-14T15:52:11;17.30;91.80
47805;DHT22;33568;45.286;9.900;2023-03-14T15:54:37;17.20;91.80
47805;DHT22;33568;45.286;9.900;2023-03-14T15:57:04;17.30;91.80
47805;DHT22;33568;45.286;9.900;2023-03-14T15:59:32;17.20;91.90
47805;DHT22;33568;45.286;9.900;2023-03-14T16:01:59;17.10;92.00
47805;DHT22;33568;45.286;9.900;2023-03-14T16:04:25;17.10;92.20
47805;DHT22;33568;45.286;9.900;2023-03-14T16:06:52;17.00;92.30
47805;DHT22;33568;45.286;9.900;2023-03-14T16:09:18;17.00;92.40
47805;DHT22;33568;45.286;9.900;2023-03-14T16:11:45;16.80;92.60
47805;DHT22;33568;45.286;9.900;2023-03-14T16:14:12;16.80;92.60
47805;DHT22;33568;45.286;9.900;2023-03-14T16:16:39;16.70;92.70
47805;DHT22;33568;45.286;9.900;2023-03-14T16:19:06;16.80;93.20
47805;DHT22;33568;45.286;9.900;2023-03-14T16:21:32;16.60;93.30
47805;DHT22;33568;45.286;9.900;2023-03-14T16:23:59;16.60;93.00
47805;DHT22;33568;45.286;9.900;2023-03-14T16:26:27;16.60;93.10
47805;DHT22;33568;45.286;9.900;2023-03-14T16:28:53;16.60;93.20
47805;DHT22;33568;45.286;9.900;2023-03-14T16:31:20;16.60;93.20
47805;DHT22;33568;45.286;9.900;2023-03-14T16:33:48;16.40;93.60
47805;DHT22;33568;45.286;9.900;2023-03-14T16:36:15;16.40;93.40
47805;DHT22;33568;45.286;9.900;2023-03-14T16:38:43;16.30;94.00
47805;DHT22;33568;45.286;9.900;2023-03-14T16:41:12;16.40;93.60
47805;DHT22;33568;45.286;9.900;2023-03-14T16:43:40;16.30;94.00
47805;DHT22;33568;45.286;9.900;2023-03-14T16:46:10;16.30;93.80
47805;DHT22;33568;45.286;9.900;2023-03-14T16:48:37;16.30;93.90
47805;DHT22;33568;45.286;9.900;2023-03-14T16:51:04;16.30;94.00
47805;DHT22;33568;45.286;9.900;2023-03-14T16:53:31;16.20;94.40
47805;DHT22;33568;45.286;9.900;2023-03-14T16:55:58;16.20;94.20
47805;DHT22;33568;45.286;9.900;2023-03-14T16:58:25;16.20;94.40
47805;DHT22;33568;45.286;9.900;2023-03-14T17:00:52;16.10;94.50
47805;DHT22;33568;45.286;9.900;2023-03-14T17:03:18;16.20;94.60
47805;DHT22;33568;45.286;9.900;2023-03-14T17:05:48;16.10;94.70
47805;DHT22;33568;45.286;9.900;2023-03-14T17:08:16;16.00;95.20
47805;DHT22;33568;45.286;9.900;2023-03-14T17:10:44;16.00;94.80
47805;DHT22;33568;45.286;9.900;2023-03-14T17:13:11;16.00;94.90